Time;durP1;ratioP1;P1;durP2;ratioP2;P2;SDS_P1;SDS_P2;PMS_P1;PMS_P2;Temp;Humidity;BMP_temperature;BMP_pressure;BME280_temperature;BME280_humidity;BME280_pressure;Samples;Min_cycle;Max_cycle;Signal;HPM_P1;HPM_P2
2022/08/25 00:01:09;;;;;;;6.45;1.90;;;;;;;;;;5034985;28;20049;-50
2022/08/25 00:03:36;;;;;;;4.78;1.67;;;;;;;;;;5036696;28;20474;-50
2022/08/25 00:06:04;;;;;;;7.85;2.25;;;;;;;;;;5036750;28;20049;-49
2022/08/25 00:08:33;;;;;;;4.63;1.83;;;;;;;;;;5035805;28;20056;-52
2022/08/25 00:11:00;;;;;;;6.20;2.25;;;;;;;;;;5027686;28;20060;-53
2022/08/25 00:13:26;;;;;;;5.93;1.70;;;;;;;;;;5032463;28;20049;-49
2022/08/25 00:15:53;;;;;;;6.50;2.17;;;;;;;;;;5027658;28;20378;-49
2022/08/25 00:18:19;;;;;;;4.40;1.85;;;;;;;;;;5017190;28;20054;-49
2022/08/25 00:20:46;;;;;;;3.67;1.35;;;;;;;;;;5023659;28;20354;-49
2022/08/25 00:23:12;;;;;;;8.07;1.98;;;;;;;;;;5027711;28;20053;-49
2022/08/25 00:25:40;;;;;;;5.55;1.73;;;;;;;;;;5024039;28;20049;-53
2022/08/25 00:28:06;;;;;;;8.40;2.50;;;;;;;;;;5036074;28;20053;-53
2022/08/25 00:30:33;;;;;;;7.13;2.20;;;;;;;;;;5034257;28;20053;-50
2022/08/25 00:32:59;;;;;;;7.25;2.47;;;;;;;;;;5031721;28;20053;-52
2022/08/25 00:35:26;;;;;;;7.07;2.55;;;;;;;;;;5015799;28;20050;-49
2022/08/25 00:37:52;;;;;;;5.10;1.90;;;;;;;;;;5015775;28;20152;-48
2022/08/25 00:40:19;;;;;;;7.68;2.50;;;;;;;;;;5018405;28;20046;-51
2022/08/25 00:42:46;;;;;;;4.07;2.17;;;;;;;;;;5022126;28;20100;-53
2022/08/25 00:45:12;;;;;;;6.10;2.17;;;;;;;;;;5026788;28;20050;-49
2022/08/25 00:47:40;;;;;;;5.55;2.10;;;;;;;;;;5015748;28;20061;-51
2022/08/25 00:50:08;;;;;;;4.32;1.65;;;;;;;;;;5017746;28;20120;-49
2022/08/25 00:52:37;;;;;;;5.82;1.73;;;;;;;;;;5026192;28;20486;-49
2022/08/25 00:55:05;;;;;;;3.60;1.73;;;;;;;;;;5021698;28;20415;-49
2022/08/25 00:57:34;;;;;;;6.43;2.30;;;;;;;;;;5016293;28;20104;-52
2022/08/25 01:00:03;;;;;;;3.25;1.52;;;;;;;;;;5026303;28;20060;-52
2022/08/25 01:02:29;;;;;;;5.15;1.90;;;;;;;;;;5034859;28;20089;-49
2022/08/25 01:04:57;;;;;;;3.97;2.10;;;;;;;;;;5034180;28;20497;-49
2022/08/25 01:07:24;;;;;;;4.72;2.10;;;;;;;;;;5035231;28;20059;-49
2022/08/25 01:09:51;;;;;;;4.47;1.60;;;;;;;;;;5032695;28;20053;-52
2022/08/25 01:12:18;;;;;;;8.35;2.08;;;;;;;;;;5024097;28;20462;-52
2022/08/25 01:14:45;;;;;;;5.85;2.00;;;;;;;;;;5025202;28;20049;-49
2022/08/25 01:17:13;;;;;;;2.38;1.40;;;;;;;;;;5035370;28;20103;-48
2022/08/25 01:19:40;;;;;;;7.70;2.20;;;;;;;;;;5034966;28;20068;-49
2022/08/25 01:22:09;;;;;;;8.10;1.73;;;;;;;;;;5034001;28;20071;-52
2022/08/25 01:24:38;;;;;;;3.92;1.77;;;;;;;;;;5035632;28;20069;-51
2022/08/25 01:27:05;;;;;;;3.80;1.60;;;;;;;;;;5035252;28;20421;-49
2022/08/25 01:29:31;;;;;;;6.38;2.10;;;;;;;;;;5034666;28;20049;-49
2022/08/25 01:31:59;;;;;;;5.43;1.77;;;;;;;;;;5034994;28;20068;-48
2022/08/25 01:34:25;;;;;;;5.25;2.03;;;;;;;;;;5028843;28;20049;-49
2022/08/25 01:36:52;;;;;;;7.28;2.30;;;;;;;;;;5022016;28;20053;-50
2022/08/25 01:39:20;;;;;;;4.43;1.60;;;;;;;;;;5033105;28;20045;-49
2022/08/25 01:41:53;;;;;;;6.75;1.80;;;;;;;;;;5035155;28;20300;-48
2022/08/25 01:44:20;;;;;;;5.63;2.75;;;;;;;;;;5035331;28;20059;-51
2022/08/25 01:46:46;;;;;;;7.05;2.67;;;;;;;;;;5035263;28;20060;-49
2022/08/25 01:49:12;;;;;;;9.43;3.00;;;;;;;;;;5023908;28;20158;-48
2022/08/25 01:51:42;;;;;;;7.05;2.75;;;;;;;;;;5034718;28;20060;-50
2022/08/25 01:54:08;;;;;;;5.50;2.88;;;;;;;;;;5020585;28;20407;-49
2022/08/25 01:56:36;;;;;;;9.98;3.25;;;;;;;;;;5034674;28;20057;-49
2022/08/25 01:59:03;;;;;;;6.47;2.42;;;;;;;;;;5017547;28;20380;-48
2022/08/25 02:01:29;;;;;;;7.10;2.53;;;;;;;;;;5029618;28;20128;-49
2022/08/25 02:03:57;;;;;;;9.73;2.88;;;;;;;;;;5034270;28;20501;-48
2022/08/25 02:06:24;;;;;;;9.15;2.92;;;;;;;;;;5033505;28;20769;-49
2022/08/25 02:08:51;;;;;;;6.80;2.50;;;;;;;;;;5032853;28;20057;-48
2022/08/25 02:11:17;;;;;;;9.07;3.15;;;;;;;;;;5033681;28;20049;-47
2022/08/25 02:13:45;;;;;;;6.20;2.95;;;;;;;;;;5033591;28;20065;-51
2022/08/25 02:16:16;;;;;;;7.03;3.30;;;;;;;;;;5033746;28;20080;-49
2022/08/25 02:18:44;;;;;;;8.27;3.38;;;;;;;;;;5031763;28;20073;-51
2022/08/25 02:21:11;;;;;;;5.47;2.80;;;;;;;;;;5033483;28;20075;-48
2022/08/25 02:23:37;;;;;;;4.40;2.97;;;;;;;;;;5033010;28;20118;-51
2022/08/25 02:26:03;;;;;;;6.88;2.85;;;;;;;;;;5033070;28;20061;-48
2022/08/25 02:28:30;;;;;;;6.78;3.05;;;;;;;;;;5032022;28;20041;-48
2022/08/25 02:30:57;;;;;;;8.32;3.28;;;;;;;;;;5033018;28;20449;-48
2022/08/25 02:33:23;;;;;;;6.65;3.00;;;;;;;;;;5033481;28;20060;-47
2022/08/25 02:35:50;;;;;;;5.78;2.67;;;;;;;;;;5033364;28;20049;-50
2022/08/25 02:38:17;;;;;;;6.65;3.05;;;;;;;;;;5032713;28;20049;-49
2022/08/25 02:40:43;;;;;;;4.50;3.13;;;;;;;;;;5033111;28;20654;-49
2022/08/25 02:43:10;;;;;;;8.80;3.60;;;;;;;;;;5033618;28;20064;-49
2022/08/25 02:45:36;;;;;;;11.20;3.78;;;;;;;;;;5033686;28;20064;-48
2022/08/25 02:48:04;;;;;;;8.55;3.42;;;;;;;;;;5032589;28;20052;-50
2022/08/25 02:50:31;;;;;;;8.77;4.00;;;;;;;;;;5034004;28;20067;-51
2022/08/25 02:52:57;;;;;;;7.03;3.22;;;;;;;;;;5033568;28;20386;-52
2022/08/25 02:55:23;;;;;;;5.57;2.80;;;;;;;;;;5017688;28;20060;-51
2022/08/25 02:57:50;;;;;;;9.77;3.90;;;;;;;;;;5022114;28;20650;-48
2022/08/25 03:00:17;;;;;;;7.03;4.13;;;;;;;;;;5032704;28;20053;-49
2022/08/25 03:02:43;;;;;;;9.15;3.55;;;;;;;;;;5034420;28;20064;-50
2022/08/25 03:05:11;;;;;;;8.95;3.70;;;;;;;;;;5033537;28;20076;-48
2022/08/25 03:07:37;;;;;;;6.22;3.17;;;;;;;;;;5033035;28;20050;-51
2022/08/25 03:10:05;;;;;;;7.00;3.10;;;;;;;;;;5033287;28;20045;-49
2022/08/25 03:12:31;;;;;;;11.60;4.65;;;;;;;;;;5034014;28;20049;-51
2022/08/25 03:14:57;;;;;;;8.50;3.50;;;;;;;;;;5033813;28;20336;-49
2022/08/25 03:17:23;;;;;;;8.23;4.60;;;;;;;;;;5028588;28;20045;-52
2022/08/25 03:19:50;;;;;;;8.10;4.57;;;;;;;;;;5013310;28;20485;-51
2022/08/25 03:22:17;;;;;;;9.75;4.57;;;;;;;;;;5013810;28;20077;-48
2022/08/25 03:24:44;;;;;;;10.63;4.60;;;;;;;;;;5013507;28;20046;-52
2022/08/25 03:27:09;;;;;;;9.00;4.15;;;;;;;;;;5023343;28;20049;-49
2022/08/25 03:29:35;;;;;;;10.65;4.20;;;;;;;;;;5033307;28;20056;-52
2022/08/25 03:32:02;;;;;;;9.57;4.45;;;;;;;;;;5033158;28;20065;-48
2022/08/25 03:34:29;;;;;;;5.95;3.70;;;;;;;;;;5035260;28;20053;-48
2022/08/25 03:36:55;;;;;;;9.07;3.90;;;;;;;;;;5034378;28;20053;-48
2022/08/25 03:39:24;;;;;;;9.77;3.92;;;;;;;;;;5037077;28;20053;-48
2022/08/25 03:41:50;;;;;;;10.88;4.00;;;;;;;;;;5037106;28;20041;-48
2022/08/25 03:44:17;;;;;;;10.25;3.33;;;;;;;;;;5036314;28;20056;-48
2022/08/25 03:46:44;;;;;;;9.15;3.80;;;;;;;;;;5035870;28;20049;-51
2022/08/25 03:49:11;;;;;;;7.57;4.00;;;;;;;;;;5036237;28;20052;-51
2022/08/25 03:51:40;;;;;;;5.43;2.70;;;;;;;;;;5036242;28;20053;-49
2022/08/25 03:54:06;;;;;;;4.90;2.65;;;;;;;;;;5022038;28;20080;-51
2022/08/25 03:56:34;;;;;;;6.35;2.90;;;;;;;;;;5034847;28;20240;-48
2022/08/25 03:59:00;;;;;;;7.97;3.05;;;;;;;;;;5036180;28;20053;-50
2022/08/25 04:01:27;;;;;;;7.32;3.63;;;;;;;;;;5032848;28;20049;-49
2022/08/25 04:03:53;;;;;;;8.00;3.60;;;;;;;;;;5036415;28;20466;-51
2022/08/25 04:06:20;;;;;;;6.32;3.17;;;;;;;;;;5031060;28;20049;-51
2022/08/25 04:08:46;;;;;;;10.18;4.50;;;;;;;;;;5036415;28;20059;-50
2022/08/25 04:11:14;;;;;;;6.30;3.95;;;;;;;;;;5033986;28;20057;-52
2022/08/25 04:13:42;;;;;;;4.65;2.88;;;;;;;;;;5034787;28;20057;-49
2022/08/25 04:16:11;;;;;;;7.20;3.40;;;;;;;;;;5030076;28;20132;-53
2022/08/25 04:18:37;;;;;;;5.22;3.15;;;;;;;;;;5014392;28;20046;-53
2022/08/25 04:21:05;;;;;;;7.53;3.85;;;;;;;;;;5014448;28;20069;-53
2022/08/25 04:23:31;;;;;;;6.50;3.80;;;;;;;;;;5014304;28;20046;-52
2022/08/25 04:25:57;;;;;;;8.45;4.28;;;;;;;;;;5014176;28;20098;-50
2022/08/25 04:28:24;;;;;;;9.02;3.75;;;;;;;;;;5014308;28;20049;-53
2022/08/25 04:30:51;;;;;;;6.78;4.28;;;;;;;;;;5014001;28;20057;-53
2022/08/25 04:33:18;;;;;;;7.78;4.15;;;;;;;;;;5025677;28;20053;-53
2022/08/25 04:35:46;;;;;;;7.30;3.80;;;;;;;;;;5035144;28;20053;-53
2022/08/25 04:38:13;;;;;;;10.73;3.38;;;;;;;;;;5034892;28;20049;-49
2022/08/25 04:40:39;;;;;;;6.32;3.50;;;;;;;;;;5034690;28;20413;-49
2022/08/25 04:43:05;;;;;;;10.85;3.90;;;;;;;;;;5035427;28;20054;-49
2022/08/25 04:45:31;;;;;;;7.32;2.92;;;;;;;;;;5034963;28;20053;-50
2022/08/25 04:48:00;;;;;;;7.15;3.05;;;;;;;;;;5035428;28;20057;-50
2022/08/25 04:50:26;;;;;;;6.68;2.90;;;;;;;;;;5033177;28;20458;-50
2022/08/25 04:52:52;;;;;;;9.20;4.50;;;;;;;;;;5035104;28;20049;-53
2022/08/25 04:55:19;;;;;;;6.78;3.45;;;;;;;;;;5018755;28;20057;-53
2022/08/25 04:57:45;;;;;;;8.05;3.40;;;;;;;;;;5029611;28;20136;-53
2022/08/25 05:00:12;;;;;;;12.55;3.75;;;;;;;;;;5034532;28;20046;-49
2022/08/25 05:02:38;;;;;;;5.65;3.50;;;;;;;;;;5034764;28;20064;-52
2022/08/25 05:05:06;;;;;;;6.75;3.42;;;;;;;;;;5034515;28;20060;-53
2022/08/25 05:07:32;;;;;;;8.70;4.57;;;;;;;;;;5034540;28;20060;-51
2022/08/25 05:09:59;;;;;;;7.55;4.20;;;;;;;;;;5034523;28;20049;-51
2022/08/25 05:12:25;;;;;;;7.30;3.95;;;;;;;;;;5034464;28;20057;-49
2022/08/25 05:14:52;;;;;;;9.10;3.83;;;;;;;;;;5034293;28;20053;-53
2022/08/25 05:17:18;;;;;;;9.13;3.88;;;;;;;;;;5034377;28;20049;-51
2022/08/25 05:19:44;;;;;;;9.98;3.88;;;;;;;;;;5033479;28;20049;-52
2022/08/25 05:22:12;;;;;;;12.13;4.13;;;;;;;;;;5030970;28;20057;-53
2022/08/25 05:24:38;;;;;;;9.20;3.60;;;;;;;;;;5034012;28;20386;-50
2022/08/25 05:27:05;;;;;;;7.35;3.58;;;;;;;;;;5034102;28;20053;-51
2022/08/25 05:29:31;;;;;;;10.40;4.15;;;;;;;;;;5034078;28;20045;-53
2022/08/25 05:31:57;;;;;;;8.10;3.50;;;;;;;;;;5033640;28;20068;-51
2022/08/25 05:34:24;;;;;;;6.50;3.47;;;;;;;;;;5033915;28;20072;-50
2022/08/25 05:36:50;;;;;;;8.30;3.88;;;;;;;;;;5034127;28;20072;-53
2022/08/25 05:39:18;;;;;;;10.63;3.95;;;;;;;;;;5033709;28;20050;-53
2022/08/25 05:41:44;;;;;;;10.30;3.88;;;;;;;;;;5033719;28;20059;-52
2022/08/25 05:44:11;;;;;;;9.85;3.25;;;;;;;;;;5033308;28;20383;-50
2022/08/25 05:46:37;;;;;;;8.57;3.80;;;;;;;;;;5032560;28;20049;-50
2022/08/25 05:49:04;;;;;;;8.38;3.53;;;;;;;;;;5033759;28;20045;-53
2022/08/25 05:51:30;;;;;;;6.70;3.50;;;;;;;;;;5021486;28;20383;-53
2022/08/25 05:53:56;;;;;;;8.77;3.13;;;;;;;;;;5032353;28;20052;-53
2022/08/25 05:56:24;;;;;;;7.35;2.92;;;;;;;;;;5032953;28;20056;-53
2022/08/25 05:58:50;;;;;;;10.05;3.60;;;;;;;;;;5033272;28;20371;-50
2022/08/25 06:04:05;;;;;;;8.55;3.63;;;;;;;;;;5033390;28;20190;-52
2022/08/25 06:06:31;;;;;;;10.27;3.78;;;;;;;;;;5033081;28;20436;-53
2022/08/25 06:08:57;;;;;;;9.35;4.05;;;;;;;;;;5033521;28;20077;-51
2022/08/25 06:11:26;;;;;;;8.48;3.20;;;;;;;;;;5033027;28;20506;-51
2022/08/25 06:13:52;;;;;;;9.88;3.55;;;;;;;;;;5021666;28;20425;-51
2022/08/25 06:16:19;;;;;;;13.77;3.78;;;;;;;;;;5030140;28;20146;-51
2022/08/25 06:18:45;;;;;;;11.15;3.95;;;;;;;;;;5031167;28;20144;-50
2022/08/25 06:21:12;;;;;;;9.27;3.53;;;;;;;;;;5029082;28;20442;-51
2022/08/25 06:23:39;;;;;;;9.70;4.18;;;;;;;;;;5028596;28;20080;-53
2022/08/25 06:26:06;;;;;;;10.02;3.70;;;;;;;;;;5032723;28;20053;-51
2022/08/25 06:28:33;;;;;;;9.98;3.58;;;;;;;;;;5032553;28;20467;-51
2022/08/25 06:31:00;;;;;;;10.20;3.83;;;;;;;;;;5032761;28;20061;-53
2022/08/25 06:33:27;;;;;;;7.20;3.45;;;;;;;;;;5019332;28;20371;-50
2022/08/25 06:35:53;;;;;;;9.02;3.72;;;;;;;;;;5035825;28;20060;-52
2022/08/25 06:38:22;;;;;;;9.65;3.78;;;;;;;;;;5035900;28;20050;-51
2022/08/25 06:40:51;;;;;;;12.45;3.70;;;;;;;;;;5035797;28;20049;-50
2022/08/25 06:43:20;;;;;;;15.52;4.45;;;;;;;;;;5035659;28;20088;-48
2022/08/25 06:46:10;;;;;;;10.95;3.53;;;;;;;;;;5033815;28;20369;-50
2022/08/25 06:48:40;;;;;;;12.25;4.22;;;;;;;;;;5032812;28;20050;-50
2022/08/25 06:51:18;;;;;;;10.85;4.47;;;;;;;;;;5033345;28;20493;-49
2022/08/25 06:53:47;;;;;;;12.57;4.43;;;;;;;;;;5032237;28;20467;-48
2022/08/25 06:56:16;;;;;;;7.25;4.07;;;;;;;;;;5033156;28;20051;-49
2022/08/25 06:58:44;;;;;;;9.57;3.90;;;;;;;;;;5033465;28;20049;-49
2022/08/25 07:01:15;;;;;;;9.63;3.38;;;;;;;;;;5034344;28;20049;-49
2022/08/25 07:03:45;;;;;;;7.78;3.47;;;;;;;;;;5033397;28;20041;-50
2022/08/25 07:06:13;;;;;;;10.27;4.25;;;;;;;;;;5034559;28;20045;-54
2022/08/25 07:08:43;;;;;;;7.93;3.88;;;;;;;;;;5036649;28;20076;-48
2022/08/25 07:11:13;;;;;;;13.65;4.72;;;;;;;;;;5031552;28;20080;-51
2022/08/25 07:13:44;;;;;;;8.93;4.10;;;;;;;;;;5026080;28;20045;-48
2022/08/25 07:16:25;;;;;;;10.93;3.65;;;;;;;;;;5025204;28;20049;-49
2022/08/25 07:18:55;;;;;;;8.23;3.67;;;;;;;;;;5037191;28;20123;-50
2022/08/25 07:21:25;;;;;;;14.05;4.93;;;;;;;;;;5037457;28;20045;-49
2022/08/25 07:23:52;;;;;;;8.05;4.20;;;;;;;;;;5036617;28;20091;-52
2022/08/25 07:26:21;;;;;;;10.38;3.80;;;;;;;;;;5037223;28;20199;-49
2022/08/25 07:29:00;;;;;;;9.80;3.85;;;;;;;;;;5037191;28;20490;-48
2022/08/25 07:31:45;;;;;;;12.05;4.60;;;;;;;;;;5036025;28;20426;-50
2022/08/25 07:36:58;;;;;;;14.93;4.68;;;;;;;;;;5036538;28;20104;-48
2022/08/25 07:39:27;;;;;;;13.88;5.22;;;;;;;;;;5036336;28;20053;-49
2022/08/25 07:41:55;;;;;;;15.57;4.85;;;;;;;;;;5035438;28;20045;-49
2022/08/25 07:44:22;;;;;;;11.38;4.80;;;;;;;;;;5035542;28;20041;-48
2022/08/25 07:46:50;;;;;;;11.88;5.00;;;;;;;;;;5030381;28;20058;-51
2022/08/25 07:49:20;;;;;;;12.35;4.28;;;;;;;;;;5032317;28;20076;-50
2022/08/25 07:51:47;;;;;;;11.73;4.45;;;;;;;;;;5030897;28;20050;-52
2022/08/25 07:54:16;;;;;;;7.05;3.78;;;;;;;;;;5034823;28;20421;-53
2022/08/25 07:56:44;;;;;;;11.30;4.90;;;;;;;;;;5030066;28;20425;-51
2022/08/25 07:59:13;;;;;;;12.82;4.43;;;;;;;;;;5035705;28;20435;-53
2022/08/25 08:01:39;;;;;;;8.77;4.30;;;;;;;;;;5034564;28;20418;-48
2022/08/25 08:04:07;;;;;;;12.57;5.50;;;;;;;;;;5030054;28;20104;-49
2022/08/25 08:06:34;;;;;;;12.18;5.15;;;;;;;;;;5036719;28;20052;-50
2022/08/25 08:09:02;;;;;;;7.95;4.90;;;;;;;;;;5031830;28;20475;-53
2022/08/25 08:11:33;;;;;;;12.30;5.25;;;;;;;;;;5033150;28;20127;-50
2022/08/25 08:14:04;;;;;;;14.85;5.38;;;;;;;;;;5035170;28;20042;-49
2022/08/25 08:16:31;;;;;;;9.90;5.22;;;;;;;;;;5031835;28;20046;-53
2022/08/25 08:19:01;;;;;;;17.67;6.93;;;;;;;;;;5029047;28;20054;-50
2022/08/25 08:21:32;;;;;;;14.90;5.78;;;;;;;;;;5021801;28;20049;-50
2022/08/25 08:23:59;;;;;;;17.77;5.97;;;;;;;;;;5023045;28;20386;-50
2022/08/25 08:26:35;;;;;;;9.75;4.70;;;;;;;;;;5035019;28;20715;-53
2022/08/25 08:29:11;;;;;;;10.07;5.35;;;;;;;;;;5035326;28;20045;-52
2022/08/25 08:31:39;;;;;;;11.25;5.15;;;;;;;;;;5034272;28;20049;-51
2022/08/25 08:34:06;;;;;;;15.07;5.50;;;;;;;;;;5036355;28;20053;-54
2022/08/25 08:36:34;;;;;;;8.60;4.68;;;;;;;;;;5031081;28;20053;-52
2022/08/25 08:39:00;;;;;;;15.65;5.90;;;;;;;;;;5033582;28;20065;-55
2022/08/25 08:44:25;;;;;;;11.63;6.28;;;;;;;;;;5022141;28;20120;-48
2022/08/25 08:46:56;;;;;;;14.38;7.47;;;;;;;;;;5034566;28;20053;-49
2022/08/25 08:49:26;;;;;;;15.70;7.82;;;;;;;;;;5034839;28;20049;-47
2022/08/25 08:51:56;;;;;;;12.50;7.50;;;;;;;;;;5035236;28;20105;-48
2022/08/25 08:54:24;;;;;;;10.02;6.32;;;;;;;;;;5024490;28;20042;-51
2022/08/25 08:56:54;;;;;;;14.88;7.28;;;;;;;;;;5035123;28;20473;-48
2022/08/25 08:59:25;;;;;;;14.23;7.50;;;;;;;;;;5034063;28;20049;-51
2022/08/25 09:02:01;;;;;;;13.77;7.25;;;;;;;;;;5035561;28;20052;-49
2022/08/25 09:04:30;;;;;;;15.02;8.20;;;;;;;;;;5035511;28;20127;-48
2022/08/25 09:07:06;;;;;;;12.70;7.85;;;;;;;;;;5028376;28;20132;-49
2022/08/25 09:09:34;;;;;;;16.60;8.68;;;;;;;;;;5035338;28;20057;-49
2022/08/25 09:12:05;;;;;;;17.23;8.00;;;;;;;;;;5035934;28;20045;-48
2022/08/25 09:14:39;;;;;;;13.30;6.47;;;;;;;;;;5034760;28;20505;-48
2022/08/25 09:17:10;;;;;;;18.40;7.37;;;;;;;;;;5033868;28;20136;-49
2022/08/25 09:19:46;;;;;;;17.15;7.40;;;;;;;;;;5032770;28;20144;-49
2022/08/25 09:22:18;;;;;;;15.07;7.75;;;;;;;;;;5033985;28;20049;-48
2022/08/25 09:24:49;;;;;;;15.02;7.55;;;;;;;;;;5034640;28;20079;-52
2022/08/25 09:27:20;;;;;;;14.13;7.38;;;;;;;;;;5033984;28;20064;-52
2022/08/25 09:29:52;;;;;;;19.23;8.57;;;;;;;;;;5033449;28;20874;-49
2022/08/25 09:32:19;;;;;;;18.65;8.13;;;;;;;;;;5032903;28;20054;-53
2022/08/25 09:34:47;;;;;;;14.18;8.57;;;;;;;;;;5033478;28;20046;-50
2022/08/25 09:37:16;;;;;;;14.82;7.53;;;;;;;;;;5033611;28;20119;-47
2022/08/25 09:39:42;;;;;;;20.05;9.00;;;;;;;;;;5029383;28;20060;-49
2022/08/25 09:42:09;;;;;;;17.80;8.40;;;;;;;;;;5025282;28;20406;-48
2022/08/25 09:44:40;;;;;;;13.57;7.22;;;;;;;;;;5029956;28;20046;-47
2022/08/25 09:47:10;;;;;;;16.67;8.35;;;;;;;;;;5032615;28;20068;-48
2022/08/25 09:49:38;;;;;;;18.38;8.20;;;;;;;;;;5032949;28;20395;-48
2022/08/25 09:52:20;;;;;;;18.83;8.60;;;;;;;;;;5027959;28;20388;-55
2022/08/25 09:54:48;;;;;;;19.60;9.10;;;;;;;;;;5022795;28;20128;-52
2022/08/25 09:57:27;;;;;;;18.45;9.18;;;;;;;;;;5024160;28;20053;-54
2022/08/25 09:59:54;;;;;;;18.05;8.63;;;;;;;;;;5019694;28;20155;-54
2022/08/25 10:02:24;;;;;;;17.20;8.27;;;;;;;;;;5015946;28;20495;-53
2022/08/25 10:04:51;;;;;;;17.77;9.00;;;;;;;;;;5019486;28;20046;-52
2022/08/25 10:07:22;;;;;;;14.43;8.98;;;;;;;;;;5029915;28;20057;-52
2022/08/25 10:09:53;;;;;;;22.55;9.45;;;;;;;;;;5034009;28;20055;-51
2022/08/25 10:12:23;;;;;;;20.42;8.88;;;;;;;;;;5024996;28;20056;-50
2022/08/25 10:14:49;;;;;;;16.45;8.00;;;;;;;;;;5035108;28;20108;-52
2022/08/25 10:17:23;;;;;;;19.85;8.52;;;;;;;;;;5035240;28;20052;-50
2022/08/25 10:19:49;;;;;;;21.30;10.07;;;;;;;;;;5034094;28;20067;-50
2022/08/25 10:22:20;;;;;;;14.40;8.07;;;;;;;;;;5036943;28;20056;-50
2022/08/25 10:24:48;;;;;;;16.20;8.23;;;;;;;;;;5035274;28;20083;-50
2022/08/25 10:27:21;;;;;;;19.40;7.60;;;;;;;;;;5035636;28;20045;-50
2022/08/25 10:29:56;;;;;;;18.65;8.93;;;;;;;;;;5035215;28;20646;-49
2022/08/25 10:32:27;;;;;;;17.60;8.20;;;;;;;;;;5035868;28;20083;-50
2022/08/25 10:34:54;;;;;;;14.20;8.05;;;;;;;;;;5029387;28;20060;-49
2022/08/25 10:37:25;;;;;;;10.55;6.65;;;;;;;;;;5025996;28;20061;-52
2022/08/25 10:39:57;;;;;;;21.83;7.72;;;;;;;;;;5026895;28;20413;-50
2022/08/25 10:42:30;;;;;;;12.93;6.65;;;;;;;;;;5024437;28;20046;-52
2022/08/25 10:48:07;;;;;;;18.85;7.22;;;;;;;;;;5032370;28;20052;-50
2022/08/25 10:50:39;;;;;;;18.48;6.82;;;;;;;;;;5031147;28;20121;-53
2022/08/25 10:53:12;;;;;;;18.92;7.13;;;;;;;;;;5031775;28;20055;-50
2022/08/25 10:55:43;;;;;;;15.85;6.75;;;;;;;;;;5032585;28;20057;-49
2022/08/25 10:58:17;;;;;;;12.65;6.28;;;;;;;;;;5039507;28;20053;-50
2022/08/25 11:00:44;;;;;;;;;;;;;;;;;;5039758;28;20054;-54
2022/08/25 11:03:20;;;;;;;11.40;5.28;;;;;;;;;;5039449;28;19932;-51
2022/08/25 11:05:49;;;;;;;16.45;6.20;;;;;;;;;;5038714;28;20370;-50
2022/08/25 11:08:21;;;;;;;10.85;6.00;;;;;;;;;;5039475;28;20443;-50
2022/08/25 11:10:49;;;;;;;12.75;5.63;;;;;;;;;;5039411;28;20052;-50
2022/08/25 11:13:20;;;;;;;11.25;5.78;;;;;;;;;;5039027;28;20489;-51
2022/08/25 11:15:51;;;;;;;17.42;6.45;;;;;;;;;;5034516;28;20136;-50
2022/08/25 11:18:20;;;;;;;10.82;5.45;;;;;;;;;;5035000;28;20045;-50
2022/08/25 11:20:50;;;;;;;16.92;6.63;;;;;;;;;;5038944;28;20092;-48
2022/08/25 11:23:19;;;;;;;10.98;5.75;;;;;;;;;;5040112;28;20053;-54
2022/08/25 11:25:51;;;;;;;11.93;5.95;;;;;;;;;;5038424;28;20101;-52
2022/08/25 11:28:22;;;;;;;13.27;5.57;;;;;;;;;;5028390;28;20085;-50
2022/08/25 11:30:51;;;;;;;14.45;6.05;;;;;;;;;;5032532;28;20524;-51
2022/08/25 11:33:18;;;;;;;12.27;5.53;;;;;;;;;;5038541;28;20104;-50
2022/08/25 11:35:47;;;;;;;14.40;6.00;;;;;;;;;;5036395;28;20068;-50
2022/08/25 11:38:21;;;;;;;11.95;5.05;;;;;;;;;;5035524;28;20053;-49
2022/08/25 11:40:54;;;;;;;15.85;5.80;;;;;;;;;;5028376;28;20101;-53
2022/08/25 11:43:33;;;;;;;9.43;4.85;;;;;;;;;;5032187;28;20068;-52
2022/08/25 11:46:06;;;;;;;10.98;4.82;;;;;;;;;;5039341;28;20060;-51
2022/08/25 11:48:43;;;;;;;10.95;5.40;;;;;;;;;;5032974;28;20455;-50
2022/08/25 11:51:10;;;;;;;18.50;5.53;;;;;;;;;;5038500;28;20053;-49
2022/08/25 11:53:41;;;;;;;15.70;5.80;;;;;;;;;;5036209;28;20059;-49
2022/08/25 11:56:08;;;;;;;20.15;6.35;;;;;;;;;;5023917;28;20064;-50
2022/08/25 11:58:47;;;;;;;10.80;5.43;;;;;;;;;;5025825;28;20057;-49
2022/08/25 12:01:38;;;;;;;12.05;5.47;;;;;;;;;;5022548;28;20041;-52
2022/08/25 12:04:13;;;;;;;11.48;5.13;;;;;;;;;;5014989;28;20139;-50
2022/08/25 12:07:14;;;;;;;13.38;6.00;;;;;;;;;;5032518;28;20049;-51
2022/08/25 12:09:56;;;;;;;14.52;5.60;;;;;;;;;;5034808;28;20454;-50
2022/08/25 12:12:35;;;;;;;13.50;5.18;;;;;;;;;;5033797;28;20114;-51
2022/08/25 12:15:14;;;;;;;12.65;5.72;;;;;;;;;;5034023;28;20067;-50
2022/08/25 12:17:40;;;;;;;10.70;5.80;;;;;;;;;;5031747;28;20085;-45
2022/08/25 12:20:07;;;;;;;10.75;4.65;;;;;;;;;;5034085;28;20057;-48
2022/08/25 12:22:50;;;;;;;10.85;4.57;;;;;;;;;;5034981;28;20041;-51
2022/08/25 12:25:23;;;;;;;13.32;5.72;;;;;;;;;;5025346;28;20050;-48
2022/08/25 12:27:58;;;;;;;15.23;6.18;;;;;;;;;;5034634;28;20808;-49
2022/08/25 12:30:24;;;;;;;;;;;;;;;;;;5035167;28;21768;-52
2022/08/25 12:32:57;;;;;;;13.88;5.53;;;;;;;;;;5033259;28;19929;-50
2022/08/25 12:35:27;;;;;;;13.43;6.30;;;;;;;;;;5034889;28;20073;-50
2022/08/25 12:37:55;;;;;;;12.35;5.45;;;;;;;;;;5030240;28;20056;-50
2022/08/25 12:40:25;;;;;;;15.88;5.68;;;;;;;;;;5034740;28;20069;-49
2022/08/25 12:43:04;;;;;;;12.15;5.68;;;;;;;;;;5034336;28;20136;-46
2022/08/25 12:45:33;;;;;;;15.82;6.43;;;;;;;;;;5035054;28;20084;-47
2022/08/25 12:48:16;;;;;;;16.17;5.07;;;;;;;;;;5028692;28;20046;-50
2022/08/25 12:50:47;;;;;;;10.95;5.65;;;;;;;;;;5031209;28;20438;-49
2022/08/25 12:53:23;;;;;;;13.98;5.82;;;;;;;;;;5034524;28;20087;-48
2022/08/25 12:56:03;;;;;;;18.60;6.47;;;;;;;;;;5029124;28;20424;-47
2022/08/25 12:58:38;;;;;;;15.75;6.80;;;;;;;;;;5018797;28;20132;-49
2022/08/25 13:01:17;;;;;;;22.50;7.45;;;;;;;;;;5033978;28;20064;-47
2022/08/25 13:04:09;;;;;;;17.13;7.38;;;;;;;;;;5034440;28;20049;-48
2022/08/25 13:06:42;;;;;;;17.42;7.40;;;;;;;;;;5024186;28;20052;-48
2022/08/25 13:09:40;;;;;;;14.85;7.85;;;;;;;;;;5034109;28;20085;-48
2022/08/25 13:12:12;;;;;;;21.90;8.63;;;;;;;;;;4989880;28;20134;-48
2022/08/25 13:14:44;;;;;;;20.15;8.27;;;;;;;;;;5023263;28;20095;-48
2022/08/25 13:17:29;;;;;;;26.23;9.32;;;;;;;;;;5033843;28;20045;-49
2022/08/25 13:20:29;;;;;;;15.55;7.82;;;;;;;;;;5033538;28;20155;-47
2022/08/25 13:22:57;;;;;;;13.38;7.57;;;;;;;;;;5032786;28;20054;-48
2022/08/25 13:25:27;;;;;;;16.83;8.25;;;;;;;;;;5033608;28;20053;-48
2022/08/25 13:28:04;;;;;;;13.82;6.82;;;;;;;;;;5033258;28;20140;-50
2022/08/25 13:30:33;;;;;;;20.15;7.35;;;;;;;;;;5033547;28;20053;-51
2022/08/25 13:33:15;;;;;;;14.88;7.78;;;;;;;;;;5032999;28;20049;-49
2022/08/25 13:35:47;;;;;;;15.80;7.25;;;;;;;;;;5027490;28;20053;-50
2022/08/25 13:38:13;;;;;;;15.80;7.82;;;;;;;;;;5032784;28;20049;-49
2022/08/25 13:40:40;;;;;;;19.23;7.65;;;;;;;;;;5032942;28;20046;-48
2022/08/25 13:43:08;;;;;;;16.58;6.88;;;;;;;;;;5033586;28;20128;-49
2022/08/25 13:45:38;;;;;;;16.58;7.47;;;;;;;;;;5032345;28;20084;-50
2022/08/25 13:48:06;;;;;;;15.57;7.43;;;;;;;;;;5024864;28;20470;-49
2022/08/25 13:50:34;;;;;;;13.15;7.07;;;;;;;;;;5032908;28;20049;-48
2022/08/25 13:53:01;;;;;;;16.35;7.57;;;;;;;;;;5033888;28;20053;-47
2022/08/25 13:55:29;;;;;;;16.15;7.65;;;;;;;;;;5032299;28;20053;-47
2022/08/25 13:57:57;;;;;;;17.13;7.90;;;;;;;;;;5025442;28;20050;-49
2022/08/25 14:00:28;;;;;;;14.77;7.65;;;;;;;;;;5031520;28;20056;-48
2022/08/25 14:02:56;;;;;;;15.15;7.53;;;;;;;;;;5033295;28;20297;-50
2022/08/25 14:05:32;;;;;;;14.80;7.72;;;;;;;;;;5033958;28;20150;-48
2022/08/25 14:07:58;;;;;;;16.33;7.43;;;;;;;;;;5033167;28;20509;-47
2022/08/25 14:10:36;;;;;;;15.45;7.63;;;;;;;;;;5033809;28;20053;-49
2022/08/25 14:13:14;;;;;;;19.50;9.00;;;;;;;;;;5033775;28;20049;-49
2022/08/25 14:15:41;;;;;;;18.23;8.90;;;;;;;;;;5033426;28;20147;-49
2022/08/25 14:18:10;;;;;;;20.58;10.80;;;;;;;;;;5031959;28;20055;-47
2022/08/25 14:20:40;;;;;;;19.17;9.48;;;;;;;;;;5033238;28;20045;-49
2022/08/25 14:23:12;;;;;;;19.52;8.63;;;;;;;;;;5027639;28;20060;-49
2022/08/25 14:25:40;;;;;;;19.92;8.65;;;;;;;;;;5032985;28;20394;-49
2022/08/25 14:28:11;;;;;;;15.60;8.70;;;;;;;;;;5030869;28;20042;-48
2022/08/25 14:30:42;;;;;;;19.48;8.73;;;;;;;;;;5017397;28;20041;-49
2022/08/25 14:33:17;;;;;;;21.20;8.48;;;;;;;;;;5030098;28;20473;-48
2022/08/25 14:35:45;;;;;;;;;;;;;;;;;;5023933;28;20057;-48
2022/08/25 14:38:12;;;;;;;19.88;8.95;;;;;;;;;;5031953;28;19921;-48
2022/08/25 14:40:41;;;;;;;18.70;8.73;;;;;;;;;;5032568;28;20132;-49
2022/08/25 14:43:09;;;;;;;16.33;9.55;;;;;;;;;;5031801;28;20079;-49
2022/08/25 14:45:47;;;;;;;13.60;8.02;;;;;;;;;;5031945;28;20081;-50
2022/08/25 14:48:20;;;;;;;20.00;9.30;;;;;;;;;;5031813;28;20111;-48
2022/08/25 14:50:50;;;;;;;17.98;8.85;;;;;;;;;;5030304;28;21093;-49
2022/08/25 14:53:17;;;;;;;19.60;8.70;;;;;;;;;;5026724;28;20050;-54
2022/08/25 14:55:48;;;;;;;20.40;9.70;;;;;;;;;;5018589;28;20064;-52
2022/08/25 14:58:17;;;;;;;19.08;9.60;;;;;;;;;;5028117;28;20053;-51
2022/08/25 15:00:49;;;;;;;21.27;10.00;;;;;;;;;;5031421;28;20136;-51